Terminal Aerodrome Forecast
Issued by NWS Jackson, MS

Home | Current Version | Previous Version | Text Only | Print | Product List | Glossary On
Versions: 1 2 3 4 5 6 7 8 9 10 11 12 13
363
FTUS44 KJAN 231420 AAA
TAFGWO
TAF AMD
KGWO 231420Z 2314/2412 31006KT P6SM SCT010 BKN025
     FM231600 31007KT P6SM BKN040 BKN090
     FM240500 30005KT P6SM SHRA SCT025 BKN050=

USA.gov is the U.S. government's official web portal to all federal, state and local government web resources and services.